createdAt,value
2023-04-18T00:00:24.730Z,11.98
2023-04-18T00:03:16.470Z,12.05
2023-04-18T00:06:04.176Z,11.62
2023-04-18T00:08:50.460Z,10.61
2023-04-18T00:11:36.501Z,9.82
2023-04-18T00:14:23.349Z,9.54
2023-04-18T00:17:09.975Z,10.25
2023-04-18T00:19:58.311Z,10.89
2023-04-18T00:22:46.441Z,11.31
2023-04-18T00:25:33.045Z,11.57
2023-04-18T00:28:19.275Z,11.79
2023-04-18T00:31:05.648Z,11.97
2023-04-18T00:33:52.157Z,12.13
2023-04-18T00:36:38.555Z,12.27
2023-04-18T00:39:26.130Z,12.48
2023-04-18T00:42:13.045Z,12.71
2023-04-18T00:45:00.973Z,12.52
2023-04-18T00:47:47.835Z,11.41
2023-04-18T00:50:36.591Z,10.44
2023-04-18T00:53:23.435Z,9.97
2023-04-18T00:56:10.560Z,10.49
2023-04-18T00:58:57.326Z,11.09
2023-04-18T01:01:44.598Z,11.56
2023-04-18T01:04:32.404Z,11.87
2023-04-18T01:07:18.916Z,12.11
2023-04-18T01:10:05.954Z,12.30
2023-04-18T01:13:19.616Z,12.42
2023-04-18T01:16:06.884Z,12.49
2023-04-18T01:18:53.533Z,12.56
2023-04-18T01:21:43.346Z,12.64
2023-04-18T01:24:32.745Z,12.73
2023-04-18T01:27:19.738Z,12.77
2023-04-18T01:30:07.667Z,12.79
2023-04-18T01:32:54.425Z,12.82
2023-04-18T01:35:40.765Z,12.59
2023-04-18T01:38:27.165Z,11.50
2023-04-18T01:41:15.511Z,10.50
2023-04-18T01:44:02.213Z,10.04
2023-04-18T01:46:48.486Z,10.62
2023-04-18T01:49:35.620Z,11.15
2023-04-18T01:52:25.478Z,11.43
2023-04-18T01:55:12.264Z,11.66
2023-04-18T01:57:58.490Z,11.83
2023-04-18T02:00:45.328Z,11.94
2023-04-18T02:03:32.101Z,12.11
2023-04-18T02:06:18.832Z,12.23
2023-04-18T02:09:08.056Z,12.25
2023-04-18T02:11:58.651Z,12.31
2023-04-18T02:14:45.007Z,12.35
2023-04-18T02:17:31.369Z,12.33
2023-04-18T02:20:17.629Z,12.17
2023-04-18T02:23:03.744Z,11.21
2023-04-18T02:25:50.285Z,10.25
2023-04-18T02:28:38.526Z,10.02
2023-04-18T02:31:25.464Z,10.60
2023-04-18T02:34:12.508Z,10.96
2023-04-18T02:37:00.153Z,11.17
2023-04-18T02:39:47.183Z,11.24
2023-04-18T02:42:33.836Z,11.37
2023-04-18T02:45:21.193Z,11.46
2023-04-18T02:48:07.313Z,11.49
2023-04-18T02:51:02.769Z,11.53
2023-04-18T02:53:54.328Z,11.60
2023-04-18T02:56:42.658Z,11.73
2023-04-18T02:59:35.476Z,11.76
2023-04-18T03:02:49.608Z,11.84
2023-04-18T03:05:46.638Z,11.82
2023-04-18T03:08:34.515Z,11.90
2023-04-18T03:11:21.677Z,11.94
2023-04-18T03:14:08.442Z,11.98
2023-04-18T03:17:01.228Z,12.04
2023-04-18T03:19:51.958Z,12.03
2023-04-18T03:22:43.583Z,12.01
2023-04-18T03:25:31.518Z,12.00
2023-04-18T03:28:20.068Z,12.03
2023-04-18T03:31:06.832Z,12.08
2023-04-18T03:33:54.852Z,12.10
2023-04-18T03:36:41.419Z,12.08
2023-04-18T03:39:28.668Z,12.04
2023-04-18T03:42:16.172Z,12.11
2023-04-18T03:45:03.587Z,12.15
2023-04-18T03:47:51.373Z,12.19
2023-04-18T03:50:39.442Z,12.20
2023-04-18T03:53:32.465Z,12.33
2023-04-18T03:56:19.097Z,12.34
2023-04-18T03:59:12.564Z,12.36
2023-04-18T04:01:59.686Z,12.35
2023-04-18T04:04:46.859Z,12.38
2023-04-18T04:07:34.665Z,12.43
2023-04-18T04:10:21.298Z,12.43
2023-04-18T04:13:08.139Z,12.44
2023-04-18T04:15:56.887Z,12.46
2023-04-18T04:18:43.604Z,12.41
2023-04-18T04:21:32.086Z,12.43
2023-04-18T04:24:19.905Z,12.47
2023-04-18T04:27:07.626Z,12.48
2023-04-18T04:29:57.469Z,12.48
2023-04-18T04:32:45.858Z,12.51
2023-04-18T04:35:34.274Z,12.55
2023-04-18T04:38:25.063Z,12.69
2023-04-18T04:41:14.417Z,12.76
2023-04-18T04:44:01.284Z,12.83
2023-04-18T04:46:56.951Z,12.35
2023-04-18T04:49:48.944Z,11.20
2023-04-18T04:52:35.741Z,10.73
2023-04-18T04:55:22.844Z,11.48
2023-04-18T04:58:11.462Z,12.08
2023-04-18T05:01:16.276Z,12.52
2023-04-18T05:04:04.217Z,12.82
2023-04-18T05:06:51.072Z,13.14
2023-04-18T05:09:38.960Z,13.43
2023-04-18T05:12:27.098Z,13.44
2023-04-18T05:15:15.949Z,12.52
2023-04-18T05:18:03.052Z,11.63
2023-04-18T05:20:49.952Z,11.82
2023-04-18T05:23:37.385Z,12.77
2023-04-18T05:26:25.260Z,13.42
2023-04-18T05:29:13.110Z,13.80
2023-04-18T05:32:01.850Z,14.02
2023-04-18T05:34:48.754Z,13.47
2023-04-18T05:37:35.264Z,12.43
2023-04-18T05:40:21.667Z,11.73
2023-04-18T05:43:08.064Z,12.26
2023-04-18T05:45:58.263Z,13.21
2023-04-18T05:48:45.008Z,14.06
2023-04-18T05:51:31.491Z,15.11
2023-04-18T05:54:21.005Z,15.80
2023-04-18T05:57:07.864Z,15.81
2023-04-18T05:59:55.993Z,16.70
2023-04-18T06:02:42.664Z,18.23
2023-04-18T06:05:29.490Z,18.83
2023-04-18T06:08:16.188Z,19.29
2023-04-18T06:11:03.311Z,19.90
2023-04-18T06:13:49.331Z,20.57
2023-04-18T06:16:37.119Z,21.14
2023-04-18T06:19:23.660Z,21.75
2023-04-18T06:22:10.037Z,22.31
2023-04-18T06:25:00.052Z,22.99
2023-04-18T06:27:46.250Z,23.63
2023-04-18T06:30:32.321Z,24.31
2023-04-18T06:33:19.045Z,24.97
2023-04-18T06:36:06.749Z,25.60
2023-04-18T06:38:53.215Z,26.09
2023-04-18T06:41:39.464Z,26.53
2023-04-18T06:44:25.827Z,26.85
2023-04-18T06:47:13.214Z,27.25
2023-04-18T06:49:59.485Z,27.71
2023-04-18T06:52:45.919Z,28.02
2023-04-18T06:55:32.574Z,28.39
2023-04-18T06:58:18.646Z,28.63
2023-04-18T07:01:04.826Z,28.62
2023-04-18T07:03:51.291Z,28.69
2023-04-18T07:06:37.783Z,28.92
2023-04-18T07:09:24.308Z,29.20
2023-04-18T07:12:10.869Z,29.56
2023-04-18T07:14:58.052Z,29.96
2023-04-18T07:17:44.549Z,30.28
2023-04-18T07:20:31.903Z,30.34
2023-04-18T07:23:18.331Z,30.59
2023-04-18T07:26:05.130Z,30.95
2023-04-18T07:28:51.897Z,31.15
2023-04-18T07:31:37.988Z,31.30
2023-04-18T07:34:29.679Z,31.35
2023-04-18T07:37:17.804Z,31.25
2023-04-18T07:40:06.594Z,31.10
2023-04-18T07:42:53.106Z,30.68
2023-04-18T07:45:42.541Z,29.76
2023-04-18T07:48:28.831Z,28.65
2023-04-18T07:51:18.497Z,27.58
2023-04-18T07:54:05.334Z,26.87
2023-04-18T07:56:52.087Z,25.89
2023-04-18T07:59:38.673Z,25.06
2023-04-18T08:02:25.106Z,24.02
2023-04-18T08:05:12.048Z,23.12
2023-04-18T08:07:58.861Z,22.61
2023-04-18T08:10:45.766Z,22.17
2023-04-18T08:13:33.304Z,22.60
2023-04-18T08:16:20.632Z,23.60
2023-04-18T08:19:07.272Z,24.50
2023-04-18T08:21:53.920Z,25.37
2023-04-18T08:24:46.426Z,26.09
2023-04-18T08:27:38.034Z,26.39
2023-04-18T08:30:26.363Z,26.41
2023-04-18T08:33:12.790Z,26.67
2023-04-18T08:35:59.326Z,26.79
2023-04-18T08:38:46.125Z,27.09
2023-04-18T08:41:39.816Z,27.37
2023-04-18T08:44:30.238Z,27.77
2023-04-18T08:47:16.701Z,28.14
2023-04-18T08:50:06.724Z,28.48
2023-04-18T08:52:54.614Z,28.77
2023-04-18T08:55:41.421Z,29.04
2023-04-18T08:58:31.747Z,29.22
2023-04-18T09:01:17.720Z,29.04
2023-04-18T09:04:05.608Z,28.70
2023-04-18T09:06:52.694Z,28.33
2023-04-18T09:09:54.630Z,28.17
2023-04-18T09:12:52.239Z,27.96
2023-04-18T09:15:38.941Z,27.61
2023-04-18T09:18:26.867Z,27.45
2023-04-18T09:21:21.014Z,27.75
2023-04-18T09:24:23.483Z,27.87
2023-04-18T09:27:13.845Z,27.85
2023-04-18T09:30:00.644Z,28.15
2023-04-18T09:32:59.426Z,28.68
2023-04-18T09:35:46.529Z,29.16
2023-04-18T09:38:40.498Z,29.39
2023-04-18T09:41:27.055Z,29.26
2023-04-18T09:44:16.277Z,28.63
2023-04-18T09:47:02.763Z,27.78
2023-04-18T09:49:49.320Z,27.17
2023-04-18T09:52:41.526Z,26.56
2023-04-18T09:55:28.860Z,25.94
2023-04-18T09:58:18.995Z,25.44
2023-04-18T10:01:06.974Z,24.74
2023-04-18T10:03:55.195Z,23.88
2023-04-18T10:06:44.813Z,23.55
2023-04-18T10:09:32.805Z,23.28
2023-04-18T10:12:19.487Z,22.87
2023-04-18T10:15:10.600Z,22.84
2023-04-18T10:18:05.757Z,23.46
2023-04-18T10:21:00.892Z,24.02
2023-04-18T10:23:48.762Z,23.97
2023-04-18T10:26:49.543Z,23.59
2023-04-18T10:29:53.269Z,23.25
2023-04-18T10:32:39.895Z,23.33
2023-04-18T10:35:26.452Z,23.48
2023-04-18T10:38:16.808Z,23.37
2023-04-18T10:41:29.638Z,23.05
2023-04-18T10:44:19.086Z,22.54
2023-04-18T10:47:28.720Z,21.93
2023-04-18T10:50:16.856Z,21.36
2023-04-18T10:53:03.289Z,20.93
2023-04-18T10:55:54.759Z,20.68
2023-04-18T10:58:43.683Z,20.71
2023-04-18T11:01:32.869Z,20.71
2023-04-18T11:04:19.933Z,20.76
2023-04-18T11:07:07.112Z,20.77
2023-04-18T11:09:56.588Z,20.63
2023-04-18T11:12:43.150Z,20.27
2023-04-18T11:15:30.981Z,20.04
2023-04-18T11:18:18.007Z,20.00
2023-04-18T11:21:05.169Z,19.98
2023-04-18T11:23:51.695Z,19.86
2023-04-18T11:26:38.249Z,19.63
2023-04-18T11:29:24.883Z,19.30
2023-04-18T11:32:13.608Z,19.19
2023-04-18T11:35:00.040Z,19.09
2023-04-18T11:37:46.136Z,18.88
2023-04-18T11:40:32.612Z,18.71
2023-04-18T11:43:24.911Z,18.57
2023-04-18T11:46:12.815Z,18.52
2023-04-18T11:48:59.352Z,18.43
2023-04-18T11:51:46.849Z,18.34
2023-04-18T11:54:41.077Z,18.14
2023-04-18T11:57:29.725Z,17.90
2023-04-18T12:00:17.619Z,17.74
2023-04-18T12:03:11.851Z,17.42
2023-04-18T12:06:00.662Z,16.97
2023-04-18T12:08:47.169Z,16.59
2023-04-18T12:11:34.405Z,16.24
2023-04-18T12:14:21.716Z,15.91
2023-04-18T12:17:08.029Z,15.67
2023-04-18T12:19:54.963Z,15.55
2023-04-18T12:22:42.812Z,15.57
2023-04-18T12:25:30.204Z,15.60
2023-04-18T12:28:19.409Z,15.62
2023-04-18T12:31:08.440Z,15.53
2023-04-18T12:33:55.113Z,15.38
2023-04-18T12:36:42.379Z,15.30
2023-04-18T12:39:28.666Z,15.13
2023-04-18T12:42:15.250Z,14.98
2023-04-18T12:45:07.230Z,14.84
2023-04-18T12:47:53.685Z,14.81
2023-04-18T12:50:40.347Z,14.73
2023-04-18T12:53:26.847Z,14.65
2023-04-18T12:56:13.118Z,14.72
2023-04-18T12:58:59.095Z,14.69
2023-04-18T13:01:45.407Z,14.61
2023-04-18T13:04:31.843Z,14.49
2023-04-18T13:07:18.816Z,14.49
2023-04-18T13:10:07.709Z,14.58
2023-04-18T13:12:55.262Z,14.71
2023-04-18T13:15:41.975Z,14.85
2023-04-18T13:18:28.362Z,14.99
2023-04-18T13:21:14.578Z,14.96
2023-04-18T13:24:01.760Z,14.88
2023-04-18T13:26:47.828Z,14.70
2023-04-18T13:29:34.320Z,14.49
2023-04-18T13:32:20.917Z,14.39
2023-04-18T13:35:08.324Z,14.25
2023-04-18T13:37:54.726Z,14.00
2023-04-18T13:40:40.950Z,13.57
2023-04-18T13:43:27.252Z,13.10
2023-04-18T13:46:13.989Z,12.72
2023-04-18T13:49:01.871Z,12.45
2023-04-18T13:51:49.915Z,12.26
2023-04-18T13:54:37.095Z,12.13
2023-04-18T13:57:23.750Z,12.03
2023-04-18T14:00:13.325Z,12.04
2023-04-18T14:03:00.055Z,12.12
2023-04-18T14:05:46.469Z,12.27
2023-04-18T14:08:32.969Z,12.44
2023-04-18T14:11:20.482Z,12.62
2023-04-18T14:14:09.641Z,12.73
2023-04-18T14:16:58.627Z,12.78
2023-04-18T14:19:44.754Z,12.81
2023-04-18T14:22:31.061Z,12.82
2023-04-18T14:25:17.794Z,12.79
2023-04-18T14:28:12.843Z,12.76
2023-04-18T14:31:01.425Z,12.75
2023-04-18T14:33:49.014Z,12.73
2023-04-18T14:36:35.570Z,12.63
2023-04-18T14:39:21.980Z,12.54
2023-04-18T14:42:08.870Z,12.58
2023-04-18T14:44:57.240Z,12.63
2023-04-18T14:47:46.295Z,12.66
2023-04-18T14:50:33.142Z,12.65
2023-04-18T14:53:19.790Z,12.56
2023-04-18T14:56:07.003Z,12.47
2023-04-18T14:58:55.025Z,12.35
2023-04-18T15:01:41.291Z,12.28
2023-04-18T15:04:27.892Z,12.17
2023-04-18T15:07:14.771Z,12.08
2023-04-18T15:10:00.905Z,12.07
2023-04-18T15:12:50.433Z,12.04
2023-04-18T15:15:39.155Z,12.02
2023-04-18T15:18:25.958Z,11.91
2023-04-18T15:21:12.693Z,11.82
2023-04-18T15:24:00.438Z,11.73
2023-04-18T15:26:47.468Z,11.70
2023-04-18T15:29:33.978Z,11.65
2023-04-18T15:32:21.792Z,11.63
2023-04-18T15:35:11.340Z,11.59
2023-04-18T15:37:58.125Z,11.55
2023-04-18T15:40:45.931Z,11.51
2023-04-18T15:43:35.510Z,11.38
2023-04-18T15:46:22.816Z,11.27
2023-04-18T15:49:09.679Z,11.18
2023-04-18T15:51:56.289Z,11.10
2023-04-18T15:54:43.453Z,10.99
2023-04-18T15:57:30.792Z,10.87
2023-04-18T16:00:19.755Z,10.78
2023-04-18T16:03:09.318Z,10.66
2023-04-18T16:05:55.953Z,10.55
2023-04-18T16:08:42.367Z,10.44
2023-04-18T16:11:29.953Z,10.33
2023-04-18T16:14:19.869Z,10.21
2023-04-18T16:17:06.812Z,10.09
2023-04-18T16:19:54.409Z,9.97
2023-04-18T16:22:41.626Z,9.83
2023-04-18T16:25:30.178Z,9.68
2023-04-18T16:28:16.886Z,9.54
2023-04-18T16:31:06.185Z,9.39
2023-04-18T16:33:52.472Z,9.29
2023-04-18T16:36:42.159Z,9.20
2023-04-18T16:39:29.417Z,9.10
2023-04-18T16:42:17.174Z,9.01
2023-04-18T16:45:04.342Z,8.91
2023-04-18T16:47:50.674Z,8.85
2023-04-18T16:50:37.616Z,8.81
2023-04-18T16:53:24.907Z,8.73
2023-04-18T16:56:11.709Z,8.63
2023-04-18T16:59:03.632Z,8.52
2023-04-18T17:01:50.591Z,8.38
2023-04-18T17:04:39.519Z,8.24
2023-04-18T17:07:27.192Z,8.09
2023-04-18T17:10:13.353Z,7.95
2023-04-18T17:13:02.467Z,7.79
2023-04-18T17:15:49.569Z,7.63
2023-04-18T17:18:38.851Z,7.49
2023-04-18T17:21:26.777Z,7.72
2023-04-18T17:24:14.402Z,8.82
2023-04-18T17:27:03.187Z,8.90
2023-04-18T17:29:51.059Z,8.36
2023-04-18T17:32:44.310Z,7.92
2023-04-18T17:35:30.695Z,7.59
2023-04-18T17:38:17.574Z,7.29
2023-04-18T17:41:05.177Z,7.31
2023-04-18T17:43:57.481Z,8.32
2023-04-18T17:46:45.858Z,9.20
2023-04-18T17:49:36.385Z,9.05
2023-04-18T17:52:22.842Z,8.22
2023-04-18T17:55:12.154Z,7.59
2023-04-18T17:57:58.771Z,7.13
2023-04-18T18:00:45.923Z,7.10
2023-04-18T18:03:32.551Z,7.92
2023-04-18T18:06:19.472Z,8.82
2023-04-18T18:09:07.631Z,9.58
2023-04-18T18:11:58.222Z,9.27
2023-04-18T18:14:46.218Z,8.35
2023-04-18T18:17:32.822Z,7.61
2023-04-18T18:20:19.567Z,7.07
2023-04-18T18:23:06.215Z,6.67
2023-04-18T18:25:53.790Z,6.36
2023-04-18T18:28:43.661Z,6.44
2023-04-18T18:31:31.833Z,7.45
2023-04-18T18:34:21.590Z,8.03
2023-04-18T18:37:10.047Z,7.50
2023-04-18T18:39:59.459Z,6.89
2023-04-18T18:42:54.153Z,6.42
2023-04-18T18:45:40.722Z,6.06
2023-04-18T18:48:27.730Z,5.96
2023-04-18T18:51:18.506Z,6.89
2023-04-18T18:54:09.549Z,7.69
2023-04-18T18:56:56.561Z,7.44
2023-04-18T18:59:43.159Z,6.79
2023-04-18T19:02:35.445Z,6.28
2023-04-18T19:05:24.697Z,5.92
2023-04-18T19:08:12.084Z,5.97
2023-04-18T19:11:00.418Z,6.93
2023-04-18T19:13:53.298Z,7.58
2023-04-18T19:16:39.680Z,7.89
2023-04-18T19:19:27.466Z,7.31
2023-04-18T19:22:14.054Z,6.65
2023-04-18T19:25:01.619Z,6.19
2023-04-18T19:27:49.264Z,5.85
2023-04-18T19:30:36.647Z,5.59
2023-04-18T19:33:25.786Z,5.68
2023-04-18T19:36:16.977Z,6.74
2023-04-18T19:39:03.398Z,7.59
2023-04-18T19:41:50.042Z,7.17
2023-04-18T19:44:36.862Z,6.50
2023-04-18T19:47:25.353Z,6.02
2023-04-18T19:50:12.950Z,5.67
2023-04-18T19:53:00.443Z,5.75
2023-04-18T19:55:47.583Z,7.18
2023-04-18T19:58:44.539Z,8.18
2023-04-18T20:01:31.036Z,7.76
2023-04-18T20:04:17.741Z,6.93
2023-04-18T20:07:06.959Z,6.31
2023-04-18T20:09:53.849Z,5.87
2023-04-18T20:12:41.302Z,5.53
2023-04-18T20:15:30.562Z,5.49
2023-04-18T20:18:17.503Z,6.39
2023-04-18T20:21:07.006Z,7.13
2023-04-18T20:23:54.003Z,7.74
2023-04-18T20:26:45.930Z,7.95
2023-04-18T20:29:32.623Z,7.20
2023-04-18T20:32:19.203Z,6.47
2023-04-18T20:35:06.740Z,5.94
2023-04-18T20:37:54.727Z,5.54
2023-04-18T20:40:45.202Z,5.48
2023-04-18T20:43:35.998Z,6.60
2023-04-18T20:46:22.984Z,7.51
2023-04-18T20:49:09.449Z,8.11
2023-04-18T20:51:57.621Z,7.79
2023-04-18T20:54:44.053Z,6.86
2023-04-18T20:57:31.318Z,6.13
2023-04-18T21:00:18.456Z,5.66
2023-04-18T21:03:06.381Z,6.18
2023-04-18T21:05:54.133Z,7.24
2023-04-18T21:08:40.623Z,7.93
2023-04-18T21:11:29.464Z,8.37
2023-04-18T21:14:16.556Z,8.82
2023-04-18T21:17:03.032Z,8.94
2023-04-18T21:19:49.437Z,7.97
2023-04-18T21:22:38.595Z,6.95
2023-04-18T21:25:25.398Z,6.20
2023-04-18T21:28:12.172Z,5.96
2023-04-18T21:30:58.651Z,6.89
2023-04-18T21:33:45.370Z,7.71
2023-04-18T21:36:32.264Z,8.16
2023-04-18T21:39:19.101Z,8.62
2023-04-18T21:42:05.733Z,8.72
2023-04-18T21:44:54.699Z,7.80
2023-04-18T21:47:40.967Z,6.75
2023-04-18T21:50:28.623Z,6.35
2023-04-18T21:53:16.573Z,7.18
2023-04-18T21:56:02.999Z,8.02
2023-04-18T21:58:49.201Z,8.62
2023-04-18T22:01:37.730Z,8.54
2023-04-18T22:04:25.969Z,7.47
2023-04-18T22:07:15.156Z,6.51
2023-04-18T22:10:03.263Z,6.21
2023-04-18T22:12:55.359Z,7.11
2023-04-18T22:15:45.539Z,7.80
2023-04-18T22:18:33.217Z,7.73
2023-04-18T22:21:22.495Z,6.81
2023-04-18T22:24:09.053Z,6.05
2023-04-18T22:26:55.407Z,5.85
2023-04-18T22:29:42.015Z,6.74
2023-04-18T22:32:30.007Z,7.51
2023-04-18T22:35:16.766Z,7.90
2023-04-18T22:38:03.590Z,7.76
2023-04-18T22:40:50.231Z,6.90
2023-04-18T22:43:36.756Z,6.20
2023-04-18T22:46:24.315Z,6.02
2023-04-18T22:49:10.488Z,6.82
2023-04-18T22:51:58.114Z,7.55
2023-04-18T22:54:45.195Z,8.05
2023-04-18T22:57:32.361Z,8.09
2023-04-18T23:00:18.854Z,7.25
2023-04-18T23:03:08.800Z,6.76
2023-04-18T23:05:56.887Z,7.44
2023-04-18T23:08:43.713Z,8.08
2023-04-18T23:11:30.363Z,8.64
2023-04-18T23:14:16.797Z,8.82
2023-04-18T23:17:03.714Z,7.98
2023-04-18T23:19:50.523Z,7.18
2023-04-18T23:22:38.227Z,6.92
2023-04-18T23:25:25.877Z,7.75
2023-04-18T23:28:13.982Z,8.53
2023-04-18T23:30:59.991Z,8.88
2023-04-18T23:33:47.673Z,8.20
2023-04-18T23:36:34.379Z,7.37
2023-04-18T23:39:21.063Z,7.19
2023-04-18T23:42:07.605Z,8.02
2023-04-18T23:44:54.358Z,8.78
2023-04-18T23:47:40.523Z,9.08
2023-04-18T23:50:26.705Z,8.30
2023-04-18T23:53:13.436Z,7.51
2023-04-18T23:55:59.577Z,7.35
2023-04-18T23:58:46.113Z,8.16
